Time;durP1;ratioP1;P1;durP2;ratioP2;P2;SDS_P1;SDS_P2;PMS_P1;PMS_P2;Temp;Humidity;BMP_temperature;BMP_pressure;BME280_temperature;BME280_humidity;BME280_pressure;Samples;Min_cycle;Max_cycle;Signal;HPM_P1;HPM_P2
2021/10/20 00:00:39;;;;;;;13.52;9.90;;;7.60;99.90;;;;;;5071634;28;20027;-67
2021/10/20 00:03:05;;;;;;;11.77;8.55;;;7.60;99.90;;;;;;5071616;28;20104;-66
2021/10/20 00:05:30;;;;;;;13.40;9.05;;;7.60;99.90;;;;;;5070583;28;20079;-67
2021/10/20 00:07:57;;;;;;;10.88;8.75;;;7.50;99.90;;;;;;5071673;28;20031;-66
2021/10/20 00:10:23;;;;;;;13.52;9.93;;;7.50;99.90;;;;;;5071576;28;20071;-66
2021/10/20 00:12:50;;;;;;;13.65;9.27;;;7.60;99.90;;;;;;5071861;28;20044;-66
2021/10/20 00:15:19;;;;;;;10.60;9.02;;;7.50;99.90;;;;;;5070765;28;20094;-66
2021/10/20 00:17:45;;;;;;;14.15;9.45;;;7.50;99.90;;;;;;5071399;28;20423;-67
2021/10/20 00:20:16;;;;;;;13.98;9.45;;;7.50;99.90;;;;;;5071249;28;20020;-66
2021/10/20 00:22:42;;;;;;;11.52;9.18;;;7.50;99.90;;;;;;5071642;28;20032;-67
2021/10/20 00:25:10;;;;;;;10.80;9.05;;;7.40;99.90;;;;;;5070792;28;20104;-67
2021/10/20 00:27:36;;;;;;;11.90;9.30;;;7.40;99.90;;;;;;5071505;28;20024;-67
2021/10/20 00:30:03;;;;;;;13.52;9.10;;;7.40;99.90;;;;;;5071413;28;20024;-67
2021/10/20 00:32:29;;;;;;;14.10;8.63;;;7.30;99.90;;;;;;5071295;28;20021;-68
2021/10/20 00:34:54;;;;;;;16.42;9.60;;;7.30;99.90;;;;;;5070290;28;20478;-67
2021/10/20 00:37:20;;;;;;;13.07;9.35;;;7.40;99.90;;;;;;5071124;28;20099;-66
2021/10/20 00:39:45;;;;;;;11.68;8.98;;;7.30;99.90;;;;;;5071332;28;20017;-67
2021/10/20 00:42:11;;;;;;;13.30;8.98;;;7.30;99.90;;;;;;5071297;28;20021;-67
2021/10/20 00:44:53;;;;;;;13.90;9.48;;;7.30;99.90;;;;;;5073220;28;20063;-67
2021/10/20 00:47:20;;;;;;;13.15;9.25;;;7.30;99.90;;;;;;5074997;28;20082;-67
2021/10/20 00:49:46;;;;;;;13.32;10.30;;;7.20;99.90;;;;;;5074475;28;20052;-67
2021/10/20 00:52:13;;;;;;;14.32;9.73;;;7.20;99.90;;;;;;5074971;28;20108;-67
2021/10/20 00:54:40;;;;;;;12.52;9.70;;;7.20;99.90;;;;;;5074601;28;20100;-66
2021/10/20 00:57:08;;;;;;;15.80;9.80;;;7.20;99.90;;;;;;5075149;28;20021;-67
2021/10/20 00:59:35;;;;;;;13.00;9.77;;;7.20;99.90;;;;;;5074700;28;20024;-67
2021/10/20 01:02:01;;;;;;;12.40;9.55;;;7.20;99.90;;;;;;5075092;28;20020;-67
2021/10/20 01:04:26;;;;;;;15.25;9.75;;;7.10;99.90;;;;;;5074448;28;20433;-66
2021/10/20 01:06:52;;;;;;;16.25;11.10;;;7.10;99.90;;;;;;5074523;28;20036;-66
2021/10/20 01:09:19;;;;;;;15.55;9.98;;;7.10;99.90;;;;;;5056945;28;20045;-65
2021/10/20 01:11:45;;;;;;;13.18;9.52;;;7.10;99.90;;;;;;5074738;28;20371;-65
2021/10/20 01:14:12;;;;;;;12.57;10.07;;;7.10;99.90;;;;;;5074621;28;20073;-67
2021/10/20 01:16:38;;;;;;;12.73;9.85;;;7.10;99.90;;;;;;5074092;28;20102;-67
2021/10/20 01:19:05;;;;;;;16.38;10.38;;;7.00;99.90;;;;;;5075835;28;20028;-66
2021/10/20 01:21:31;;;;;;;14.45;10.70;;;7.00;99.90;;;;;;5075581;28;20040;-66
2021/10/20 01:23:58;;;;;;;11.38;9.75;;;7.10;99.90;;;;;;5075859;28;20033;-66
2021/10/20 01:26:24;;;;;;;16.15;11.10;;;7.00;99.90;;;;;;5075055;28;20478;-66
2021/10/20 01:28:51;;;;;;;11.48;9.18;;;7.00;99.90;;;;;;5075778;28;20055;-66
2021/10/20 01:31:16;;;;;;;12.85;9.60;;;6.90;99.90;;;;;;5075180;28;20028;-67
2021/10/20 01:33:42;;;;;;;19.52;10.98;;;6.90;99.90;;;;;;5074583;28;20473;-66
2021/10/20 01:36:08;;;;;;;11.65;9.57;;;7.00;99.90;;;;;;5073511;28;20025;-67
2021/10/20 01:38:34;;;;;;;12.05;9.30;;;7.00;99.90;;;;;;5074577;28;20028;-65
2021/10/20 01:41:00;;;;;;;16.02;9.68;;;7.00;99.90;;;;;;5074202;28;20021;-66
2021/10/20 01:43:52;;;;;;;12.13;9.65;;;6.90;99.90;;;;;;5074403;28;20067;-66
2021/10/20 01:46:19;;;;;;;11.63;8.73;;;6.90;99.90;;;;;;5072999;28;20032;-66
2021/10/20 01:48:46;;;;;;;13.10;9.52;;;6.90;99.90;;;;;;5074418;28;20085;-66
2021/10/20 01:51:14;;;;;;;17.85;12.25;;;6.90;99.90;;;;;;5074106;28;20482;-66
2021/10/20 01:53:41;;;;;;;21.05;12.80;;;6.80;99.90;;;;;;5074024;28;20031;-65
2021/10/20 01:56:07;;;;;;;16.00;12.02;;;6.80;99.90;;;;;;5072670;28;20029;-65
2021/10/20 01:58:33;;;;;;;11.98;9.15;;;6.90;99.90;;;;;;5074466;28;20025;-65
2021/10/20 02:00:59;;;;;;;13.07;10.02;;;6.80;99.90;;;;;;5074350;28;20025;-66
2021/10/20 02:03:26;;;;;;;13.63;9.70;;;6.80;99.90;;;;;;5074369;28;20029;-66
2021/10/20 02:05:55;;;;;;;13.70;9.35;;;6.80;99.90;;;;;;5073076;28;20040;-65
2021/10/20 02:08:22;;;;;;;10.48;8.82;;;6.80;99.90;;;;;;5073921;28;20067;-65
2021/10/20 02:10:48;;;;;;;15.15;9.70;;;6.70;99.90;;;;;;5074077;28;20112;-65
2021/10/20 02:13:13;;;;;;;11.88;8.80;;;6.70;99.90;;;;;;5074177;28;20537;-65
2021/10/20 02:15:39;;;;;;;12.45;9.93;;;6.70;99.90;;;;;;5073182;28;20033;-65
2021/10/20 02:18:05;;;;;;;18.23;11.35;;;6.70;99.90;;;;;;5074136;28;20055;-65
2021/10/20 02:20:31;;;;;;;14.30;9.40;;;6.70;99.90;;;;;;5073938;28;20990;-65
2021/10/20 02:22:56;;;;;;;13.38;9.52;;;6.60;99.90;;;;;;5072852;28;20032;-67
2021/10/20 02:25:22;;;;;;;14.60;8.75;;;6.60;99.90;;;;;;5073284;28;20020;-66
2021/10/20 02:27:49;;;;;;;14.65;10.93;;;6.50;99.90;;;;;;5074028;28;20394;-65
2021/10/20 02:30:15;;;;;;;11.75;9.57;;;6.50;99.90;;;;;;5073619;28;20027;-66
2021/10/20 02:32:41;;;;;;;14.50;9.57;;;6.60;99.90;;;;;;5073532;28;20033;-66
2021/10/20 02:35:08;;;;;;;12.45;9.68;;;6.60;99.90;;;;;;5072958;28;20517;-65
2021/10/20 02:37:34;;;;;;;12.55;9.57;;;6.50;99.90;;;;;;5073007;28;20142;-67
2021/10/20 02:40:00;;;;;;;15.30;9.65;;;6.50;99.90;;;;;;5073871;28;20024;-65
2021/10/20 02:42:25;;;;;;;13.82;9.63;;;6.50;99.90;;;;;;5073996;28;20032;-64
2021/10/20 02:44:51;;;;;;;13.18;9.85;;;6.50;99.90;;;;;;5073064;28;20095;-65
2021/10/20 02:47:17;;;;;;;13.27;9.25;;;6.50;99.90;;;;;;5073867;28;20036;-65
2021/10/20 02:49:42;;;;;;;12.70;10.20;;;6.50;99.90;;;;;;5073703;28;20028;-65
2021/10/20 02:52:08;;;;;;;16.10;10.15;;;6.50;99.90;;;;;;5072891;28;20028;-65
2021/10/20 02:54:34;;;;;;;13.90;9.70;;;6.40;99.90;;;;;;5072741;28;20105;-65
2021/10/20 02:56:59;;;;;;;10.35;8.68;;;6.40;99.90;;;;;;5073302;28;20016;-64
2021/10/20 02:59:25;;;;;;;10.48;8.77;;;6.40;99.90;;;;;;5073347;28;20411;-66
2021/10/20 03:01:51;;;;;;;14.43;10.32;;;6.40;99.90;;;;;;5072939;28;20058;-66
2021/10/20 03:04:16;;;;;;;12.82;9.48;;;6.40;99.90;;;;;;5072548;28;20067;-66
2021/10/20 03:06:42;;;;;;;18.52;11.00;;;6.30;99.90;;;;;;5068831;28;20031;-65
2021/10/20 03:09:08;;;;;;;20.90;10.13;;;6.40;99.90;;;;;;5053254;28;20064;-66
2021/10/20 03:11:33;;;;;;;14.75;10.45;;;6.30;99.90;;;;;;5053498;28;20105;-66
2021/10/20 03:13:59;;;;;;;13.55;11.02;;;6.40;99.90;;;;;;5053148;28;20045;-66
2021/10/20 03:16:25;;;;;;;17.35;10.50;;;6.30;99.90;;;;;;5052146;28;20052;-65
2021/10/20 03:18:51;;;;;;;15.98;11.38;;;6.40;99.90;;;;;;5053437;28;20024;-66
2021/10/20 03:21:17;;;;;;;14.13;10.13;;;6.40;99.90;;;;;;5054755;28;20121;-65
2021/10/20 03:23:42;;;;;;;12.50;9.27;;;6.40;99.90;;;;;;5073677;28;20056;-65
2021/10/20 03:26:08;;;;;;;12.90;9.13;;;6.30;99.90;;;;;;5073682;28;20028;-66
2021/10/20 03:28:34;;;;;;;12.30;8.55;;;6.30;99.90;;;;;;5075259;28;20383;-65
2021/10/20 03:30:59;;;;;;;12.00;9.32;;;6.30;99.90;;;;;;5075884;28;20035;-65
2021/10/20 03:33:25;;;;;;;14.27;9.90;;;6.40;99.90;;;;;;5075862;28;20051;-65
2021/10/20 03:35:50;;;;;;;11.27;8.93;;;6.40;99.90;;;;;;5072788;28;20025;-65
2021/10/20 03:38:16;;;;;;;10.95;8.60;;;6.40;99.90;;;;;;5072416;28;20116;-65
2021/10/20 03:40:42;;;;;;;12.07;9.15;;;6.30;99.90;;;;;;5072273;28;20471;-66
2021/10/20 03:43:08;;;;;;;10.88;8.45;;;6.30;99.90;;;;;;5072352;28;20474;-66
2021/10/20 03:45:33;;;;;;;10.68;8.43;;;6.40;99.90;;;;;;5071820;28;20161;-66
2021/10/20 03:47:59;;;;;;;10.40;8.75;;;6.30;99.90;;;;;;5072892;28;20020;-67
2021/10/20 03:50:25;;;;;;;12.25;9.18;;;6.40;99.90;;;;;;5072354;28;20024;-67
2021/10/20 03:52:51;;;;;;;10.07;8.35;;;6.40;99.90;;;;;;5072490;28;20029;-66
2021/10/20 03:55:16;;;;;;;15.75;9.27;;;6.40;99.90;;;;;;5071396;28;20056;-66
2021/10/20 03:57:42;;;;;;;11.82;8.98;;;6.50;99.90;;;;;;5072022;28;20027;-65
2021/10/20 04:00:11;;;;;;;11.45;8.77;;;6.40;99.90;;;;;;5071947;28;20031;-66
2021/10/20 04:02:42;;;;;;;12.40;9.02;;;6.40;99.90;;;;;;5071988;28;20028;-65
2021/10/20 04:05:11;;;;;;;10.43;8.88;;;6.40;99.90;;;;;;5069660;28;20067;-65
2021/10/20 04:07:39;;;;;;;20.77;9.43;;;6.40;99.90;;;;;;5071917;28;20033;-65
2021/10/20 04:10:07;;;;;;;10.15;8.63;;;6.30;99.90;;;;;;5071986;28;20023;-64
2021/10/20 04:12:32;;;;;;;12.20;8.88;;;6.40;99.90;;;;;;5072037;28;20368;-65
2021/10/20 04:14:58;;;;;;;13.15;9.40;;;6.30;99.90;;;;;;5071351;28;20027;-65
2021/10/20 04:17:24;;;;;;;14.57;9.30;;;6.30;99.90;;;;;;5063127;28;20037;-70
2021/10/20 04:19:49;;;;;;;12.93;9.10;;;6.40;99.90;;;;;;5070858;28;20092;-70
2021/10/20 04:22:15;;;;;;;14.13;8.88;;;6.40;99.90;;;;;;5070177;28;20379;-69
2021/10/20 04:24:40;;;;;;;14.70;9.80;;;6.40;99.90;;;;;;5070541;28;20028;-69
2021/10/20 04:27:06;;;;;;;14.95;9.05;;;6.40;99.90;;;;;;5071267;28;20071;-70
2021/10/20 04:29:32;;;;;;;11.18;9.25;;;6.40;99.90;;;;;;5071171;28;20028;-70
2021/10/20 04:31:57;;;;;;;14.77;9.02;;;6.30;99.90;;;;;;5052988;28;20497;-71
2021/10/20 04:34:23;;;;;;;15.10;8.75;;;6.30;99.90;;;;;;5072560;28;20040;-71
2021/10/20 04:36:48;;;;;;;21.30;10.02;;;6.30;99.90;;;;;;5072262;28;20078;-71
2021/10/20 04:39:14;;;;;;;9.45;7.72;;;6.30;99.90;;;;;;5070252;28;20059;-71
2021/10/20 04:41:40;;;;;;;9.15;7.70;;;6.30;99.90;;;;;;5071181;28;20443;-71
2021/10/20 04:44:05;;;;;;;11.27;7.88;;;6.20;99.90;;;;;;5071340;28;20074;-70
2021/10/20 04:46:31;;;;;;;8.10;6.68;;;6.20;99.90;;;;;;5070052;28;20055;-70
2021/10/20 04:48:57;;;;;;;10.95;7.70;;;6.10;99.90;;;;;;5066971;28;20025;-71
2021/10/20 04:51:22;;;;;;;8.80;7.43;;;6.10;99.90;;;;;;5050678;28;20036;-71
2021/10/20 04:53:48;;;;;;;12.27;8.25;;;6.10;99.90;;;;;;5051202;28;20021;-70
2021/10/20 04:56:13;;;;;;;18.58;10.20;;;6.10;99.90;;;;;;5050325;28;20025;-70
2021/10/20 04:58:39;;;;;;;13.18;9.90;;;6.10;99.90;;;;;;5050967;28;20025;-71
2021/10/20 05:01:05;;;;;;;12.27;9.45;;;6.10;99.90;;;;;;5049970;28;20059;-71
2021/10/20 05:03:30;;;;;;;14.40;9.70;;;6.10;99.90;;;;;;5050355;28;20036;-74
2021/10/20 05:05:56;;;;;;;12.63;10.30;;;6.10;99.90;;;;;;5058853;28;20027;-74
2021/10/20 05:08:22;;;;;;;12.55;10.15;;;6.10;99.90;;;;;;5070611;28;20025;-73
2021/10/20 05:10:47;;;;;;;19.60;11.43;;;6.10;99.90;;;;;;5070798;28;20748;-74
2021/10/20 05:13:13;;;;;;;14.45;9.93;;;6.10;99.90;;;;;;5071325;28;20017;-74
2021/10/20 05:15:39;;;;;;;14.73;11.75;;;6.10;99.90;;;;;;5070281;28;20024;-76
2021/10/20 05:18:04;;;;;;;12.63;9.00;;;6.30;99.90;;;;;;5070145;28;20103;-74
2021/10/20 05:20:31;;;;;;;11.73;9.40;;;6.30;99.90;;;;;;5071004;28;20028;-75
2021/10/20 05:22:57;;;;;;;10.73;8.95;;;6.20;99.90;;;;;;5069906;28;20068;-74
2021/10/20 05:25:22;;;;;;;12.98;9.73;;;6.20;99.90;;;;;;5070251;28;20111;-75
2021/10/20 05:27:48;;;;;;;11.32;9.75;;;6.20;99.90;;;;;;5070903;28;20058;-74
2021/10/20 05:30:14;;;;;;;12.88;9.20;;;6.10;99.90;;;;;;5071369;28;20435;-72
2021/10/20 05:32:40;;;;;;;11.73;9.27;;;6.10;99.90;;;;;;5074363;28;20119;-71
2021/10/20 05:37:41;;;;;;;10.20;8.70;;;6.00;99.90;;;;;;5014020;28;20455;-70
2021/10/20 05:40:07;;;;;;;10.35;8.57;;;6.00;99.90;;;;;;4997533;28;20026;-72
2021/10/20 05:42:33;;;;;;;11.23;8.35;;;5.90;99.90;;;;;;5014379;28;20026;-72
2021/10/20 05:44:58;;;;;;;10.77;8.85;;;5.80;99.90;;;;;;5017296;28;20404;-71
2021/10/20 05:47:24;;;;;;;11.57;9.07;;;5.90;99.90;;;;;;5034100;28;20033;-72
2021/10/20 05:49:50;;;;;;;11.07;8.88;;;5.80;99.90;;;;;;5035129;28;20032;-72
2021/10/20 05:52:15;;;;;;;13.52;9.20;;;5.90;99.90;;;;;;5031951;28;20140;-73
2021/10/20 05:54:41;;;;;;;10.63;8.43;;;5.90;99.90;;;;;;5033332;28;20041;-71
2021/10/20 05:57:07;;;;;;;12.32;8.80;;;5.80;99.90;;;;;;5033984;28;20113;-71
2021/10/20 05:59:32;;;;;;;12.13;8.90;;;5.70;99.90;;;;;;5033310;28;20029;-72
2021/10/20 06:01:58;;;;;;;10.63;8.77;;;5.70;99.90;;;;;;5033844;28;20038;-71
2021/10/20 06:04:23;;;;;;;14.07;10.07;;;5.70;99.90;;;;;;5033244;28;20040;-72
2021/10/20 06:06:49;;;;;;;14.00;10.25;;;5.70;99.90;;;;;;5033479;28;20447;-71
2021/10/20 06:09:15;;;;;;;11.57;10.00;;;5.70;99.90;;;;;;5033436;28;20101;-71
2021/10/20 06:11:40;;;;;;;16.05;9.30;;;5.70;99.90;;;;;;5027723;28;20022;-64
2021/10/20 06:14:08;;;;;;;12.70;9.32;;;5.90;99.90;;;;;;5013798;28;20026;-63
2021/10/20 06:16:36;;;;;;;9.77;8.52;;;5.90;99.90;;;;;;5013184;28;20054;-64
2021/10/20 06:19:05;;;;;;;11.65;9.00;;;5.80;99.90;;;;;;5013916;28;20514;-63
2021/10/20 06:21:32;;;;;;;12.23;8.70;;;5.80;99.90;;;;;;5016712;28;20080;-65
2021/10/20 06:23:58;;;;;;;11.05;9.05;;;5.90;99.90;;;;;;5033656;28;20113;-65
2021/10/20 06:26:24;;;;;;;11.93;8.85;;;5.90;99.90;;;;;;5032653;28;20057;-65
2021/10/20 06:28:50;;;;;;;15.77;8.50;;;5.90;99.90;;;;;;5033278;28;20057;-65
2021/10/20 06:31:16;;;;;;;10.35;8.57;;;5.90;99.90;;;;;;5033352;28;20044;-64
2021/10/20 06:33:42;;;;;;;9.82;7.72;;;6.00;99.90;;;;;;5033407;28;20652;-65
2021/10/20 06:36:22;;;;;;;9.80;7.68;;;6.00;99.90;;;;;;5032524;28;20044;-65
2021/10/20 06:38:48;;;;;;;14.15;9.38;;;6.10;99.90;;;;;;5033425;28;20072;-65
2021/10/20 06:41:14;;;;;;;16.67;9.77;;;6.10;99.90;;;;;;5032833;28;20438;-64
2021/10/20 06:43:39;;;;;;;14.27;9.32;;;6.30;99.90;;;;;;5033442;28;20026;-65
2021/10/20 06:46:07;;;;;;;13.10;8.90;;;6.20;99.90;;;;;;5031321;28;20040;-66
2021/10/20 06:48:32;;;;;;;13.35;10.05;;;6.40;99.90;;;;;;5033298;28;20037;-63
2021/10/20 06:50:58;;;;;;;15.77;9.75;;;6.40;99.90;;;;;;5033347;28;20172;-65
2021/10/20 06:53:24;;;;;;;13.02;9.60;;;6.40;99.90;;;;;;5031995;28;20076;-66
2021/10/20 06:55:49;;;;;;;14.57;10.63;;;6.50;99.90;;;;;;5032231;28;20137;-65
2021/10/20 06:58:15;;;;;;;14.65;10.57;;;6.60;99.90;;;;;;5033017;28;20064;-63
2021/10/20 07:00:41;;;;;;;17.17;11.48;;;6.70;99.90;;;;;;5032938;28;20049;-65
2021/10/20 07:03:07;;;;;;;17.45;11.07;;;6.80;99.90;;;;;;5033175;28;20514;-65
2021/10/20 07:05:32;;;;;;;17.92;10.85;;;6.90;99.90;;;;;;5031926;28;20030;-66
2021/10/20 07:07:58;;;;;;;17.92;11.07;;;7.00;99.90;;;;;;5032475;28;20033;-64
2021/10/20 07:10:23;;;;;;;17.85;10.93;;;7.10;99.90;;;;;;5032685;28;20057;-65
2021/10/20 07:12:50;;;;;;;15.93;10.68;;;7.20;99.90;;;;;;5033032;28;20028;-64
2021/10/20 07:15:16;;;;;;;18.17;11.48;;;7.30;99.90;;;;;;5032430;28;20052;-65
2021/10/20 07:17:43;;;;;;;14.57;12.00;;;7.50;99.90;;;;;;5034513;28;20396;-66
2021/10/20 07:20:10;;;;;;;17.92;12.02;;;7.60;99.90;;;;;;5031373;28;20022;-65
2021/10/20 07:22:38;;;;;;;17.10;12.43;;;7.70;99.90;;;;;;5031600;28;20034;-64
2021/10/20 07:25:07;;;;;;;18.73;12.40;;;7.90;99.90;;;;;;5031612;28;20513;-64
2021/10/20 07:27:34;;;;;;;21.75;12.60;;;8.10;99.90;;;;;;5032464;28;20030;-65
2021/10/20 07:30:01;;;;;;;15.02;11.27;;;8.30;99.90;;;;;;5032501;28;20021;-65
2021/10/20 07:32:26;;;;;;;22.27;11.18;;;8.40;99.90;;;;;;5032641;28;20044;-67
2021/10/20 07:34:52;;;;;;;15.80;9.85;;;8.50;99.90;;;;;;5031826;28;20641;-65
2021/10/20 07:37:17;;;;;;;18.25;9.55;;;8.70;99.90;;;;;;5031094;28;20030;-65
2021/10/20 07:39:43;;;;;;;14.23;9.10;;;8.80;99.90;;;;;;5032246;28;20045;-66
2021/10/20 07:42:09;;;;;;;12.35;8.77;;;8.90;99.90;;;;;;5032126;28;20030;-64
2021/10/20 07:44:34;;;;;;;9.57;8.52;;;9.30;99.90;;;;;;5031225;28;20026;-65
2021/10/20 07:47:00;;;;;;;10.88;7.15;;;9.60;99.90;;;;;;5032168;28;20073;-64
2021/10/20 07:49:26;;;;;;;13.32;6.90;;;10.00;99.90;;;;;;5032158;28;20099;-64
2021/10/20 07:51:56;;;;;;;11.05;6.07;;;10.50;99.90;;;;;;5031805;28;20057;-66
2021/10/20 07:54:23;;;;;;;9.13;6.45;;;11.00;99.90;;;;;;5030879;28;20036;-65
2021/10/20 07:56:48;;;;;;;11.20;6.05;;;11.60;99.90;;;;;;5032166;28;20029;-64
2021/10/20 07:59:14;;;;;;;12.63;6.05;;;13.60;99.90;;;;;;5032286;28;20095;-64
2021/10/20 08:01:40;;;;;;;8.65;5.57;;;16.00;99.90;;;;;;5032187;28;20391;-65
2021/10/20 08:04:05;;;;;;;8.48;4.97;;;17.20;99.90;;;;;;5032107;28;20029;-65
2021/10/20 08:06:31;;;;;;;12.48;5.68;;;17.10;99.90;;;;;;5030746;28;20377;-65
2021/10/20 08:08:57;;;;;;;6.80;4.75;;;16.90;99.90;;;;;;5031833;28;20506;-65
2021/10/20 08:11:22;;;;;;;10.90;5.18;;;17.40;99.90;;;;;;5032086;28;20029;-67
2021/10/20 08:13:49;;;;;;;7.03;4.47;;;18.30;99.90;;;;;;5031796;28;20499;-65
2021/10/20 08:16:15;;;;;;;7.63;5.43;;;19.30;99.90;;;;;;5031255;28;20025;-65
2021/10/20 08:18:40;;;;;;;10.00;4.28;;;20.30;99.90;;;;;;5031948;28;20503;-64
2021/10/20 08:21:06;;;;;;;4.80;4.18;;;21.00;99.90;;;;;;5031113;28;20395;-65
2021/10/20 08:23:32;;;;;;;8.10;4.18;;;21.90;99.30;;;;;;5031377;28;20026;-65
2021/10/20 08:25:57;;;;;;;4.43;4.03;;;22.60;97.00;;;;;;5030810;28;20096;-66
2021/10/20 08:28:23;;;;;;;7.45;4.90;;;22.90;95.70;;;;;;5031607;28;20390;-65
2021/10/20 08:30:48;;;;;;;4.70;4.22;;;23.60;95.80;;;;;;5030850;28;20404;-65
2021/10/20 08:33:16;;;;;;;8.75;5.18;;;23.90;94.40;;;;;;5031530;28;20031;-67
2021/10/20 08:35:42;;;;;;;14.18;4.93;;;24.40;93.80;;;;;;5030596;28;20470;-66
2021/10/20 08:38:08;;;;;;;7.68;5.07;;;24.30;93.10;;;;;;5030695;28;20479;-68
2021/10/20 08:40:41;;;;;;;7.47;5.20;;;24.20;92.90;;;;;;5031784;28;20117;-65
2021/10/20 08:43:07;;;;;;;8.48;5.28;;;24.00;93.60;;;;;;5031359;28;20038;-67
2021/10/20 08:45:33;;;;;;;10.63;5.35;;;23.50;94.80;;;;;;5031016;28;20028;-66
2021/10/20 08:47:59;;;;;;;6.63;5.30;;;22.90;95.90;;;;;;5031458;28;20036;-64
2021/10/20 08:50:28;;;;;;;7.28;4.90;;;22.40;97.20;;;;;;5031529;28;20482;-65
2021/10/20 08:52:55;;;;;;;10.13;5.22;;;22.00;98.00;;;;;;5031225;28;20029;-66
2021/10/20 08:55:22;;;;;;;5.95;4.85;;;21.60;99.10;;;;;;5030805;28;20392;-66
2021/10/20 08:57:52;;;;;;;8.63;4.80;;;21.30;99.90;;;;;;5031157;28;20450;-66
2021/10/20 09:00:19;;;;;;;6.47;5.55;;;21.40;99.90;;;;;;5030947;28;20029;-66
2021/10/20 09:02:47;;;;;;;4.35;3.95;;;22.10;98.90;;;;;;5031133;28;20021;-65
2021/10/20 09:05:20;;;;;;;6.20;3.50;;;23.00;96.90;;;;;;5032302;28;20565;-65
2021/10/20 09:07:48;;;;;;;6.88;3.25;;;23.10;94.50;;;;;;5033885;28;20034;-65
2021/10/20 09:10:14;;;;;;;3.35;3.05;;;23.40;94.40;;;;;;5035190;28;20021;-65
2021/10/20 09:12:40;;;;;;;4.63;3.20;;;23.10;95.40;;;;;;5034603;28;20037;-65
2021/10/20 09:15:21;;;;;;;3.60;3.30;;;22.20;95.40;;;;;;5034201;28;20037;-65
2021/10/20 09:17:54;;;;;;;6.00;3.45;;;21.90;97.00;;;;;;5035262;28;20361;-65
2021/10/20 09:20:32;;;;;;;4.38;2.88;;;21.60;97.50;;;;;;5034927;28;20399;-65
2021/10/20 09:23:10;;;;;;;5.32;3.00;;;22.20;97.10;;;;;;5034867;28;20450;-65
2021/10/20 09:25:42;;;;;;;5.95;3.00;;;22.30;97.30;;;;;;5033891;28;20021;-64
2021/10/20 09:28:14;;;;;;;17.77;3.75;;;22.00;97.30;;;;;;5034811;28;20033;-65
2021/10/20 09:30:41;;;;;;;5.20;3.13;;;21.30;97.80;;;;;;5034761;28;20030;-66
2021/10/20 09:33:09;;;;;;;3.75;3.10;;;21.00;98.40;;;;;;5035375;28;20029;-64
2021/10/20 09:35:35;;;;;;;2.80;2.60;;;21.40;97.90;;;;;;5033863;28;20056;-66
2021/10/20 09:38:02;;;;;;;3.70;2.80;;;21.60;99.00;;;;;;5034598;28;20028;-65
2021/10/20 09:40:34;;;;;;;3.60;2.60;;;21.60;96.70;;;;;;5034284;28;20025;-66
2021/10/20 09:43:00;;;;;;;7.47;3.25;;;21.70;96.60;;;;;;5034241;28;20033;-66
2021/10/20 09:45:26;;;;;;;6.00;2.95;;;22.40;96.30;;;;;;5033534;28;20102;-64
2021/10/20 09:47:55;;;;;;;2.90;2.55;;;22.90;96.60;;;;;;5034969;28;20037;-65
2021/10/20 09:50:21;;;;;;;4.63;3.30;;;23.80;94.10;;;;;;5034347;28;20033;-65
2021/10/20 09:52:52;;;;;;;5.47;3.70;;;24.40;93.10;;;;;;5033892;28;20029;-65
2021/10/20 09:55:30;;;;;;;3.70;3.28;;;23.80;93.60;;;;;;5033689;28;20380;-65
2021/10/20 09:58:13;;;;;;;5.35;2.75;;;24.90;93.70;;;;;;5034075;28;20036;-65
2021/10/20 10:00:40;;;;;;;4.88;3.53;;;25.20;92.20;;;;;;5034372;28;20088;-66
2021/10/20 10:03:08;;;;;;;4.28;3.80;;;25.00;93.70;;;;;;5033906;28;20482;-65
2021/10/20 10:05:34;;;;;;;6.57;3.83;;;25.00;94.00;;;;;;5022793;28;20033;-65
2021/10/20 10:08:01;;;;;;;4.20;3.72;;;24.30;94.80;;;;;;5014377;28;20116;-66
2021/10/20 10:10:27;;;;;;;7.53;3.50;;;24.00;95.60;;;;;;5013985;28;20109;-66
2021/10/20 10:12:57;;;;;;;5.55;3.30;;;23.90;96.90;;;;;;5013999;28;20112;-66
2021/10/20 10:15:24;;;;;;;3.47;2.20;;;24.10;97.00;;;;;;5013977;28;20022;-67
2021/10/20 10:17:55;;;;;;;6.10;2.50;;;24.90;93.00;;;;;;5013102;28;20046;-65
2021/10/20 10:20:22;;;;;;;5.55;2.53;;;25.40;91.70;;;;;;5014188;28;20026;-67
2021/10/20 10:22:59;;;;;;;5.95;2.53;;;25.50;91.20;;;;;;5015257;28;20034;-65
2021/10/20 10:25:41;;;;;;;4.10;2.30;;;24.80;90.80;;;;;;5032742;28;20022;-66
2021/10/20 10:28:23;;;;;;;;;;;24.80;93.00;;;;;;5034424;28;20025;-64
2021/10/20 10:30:57;;;;;;;3.65;2.28;;;24.30;91.70;;;;;;5033939;28;19905;-64
2021/10/20 10:33:28;;;;;;;8.45;3.47;;;23.30;93.20;;;;;;5033422;28;20052;-65
2021/10/20 10:36:11;;;;;;;7.07;2.47;;;23.20;94.40;;;;;;5032497;28;20029;-64
2021/10/20 10:38:49;;;;;;;7.07;2.95;;;23.30;95.40;;;;;;5013165;28;20476;-66
2021/10/20 10:41:17;;;;;;;5.10;2.92;;;23.10;95.80;;;;;;5013704;28;20026;-66
2021/10/20 10:44:05;;;;;;;5.57;3.10;;;23.00;95.50;;;;;;5014049;28;20018;-67
2021/10/20 10:46:51;;;;;;;2.30;2.10;;;23.40;96.70;;;;;;5012931;28;20105;-65
2021/10/20 10:49:21;;;;;;;4.72;2.58;;;24.10;95.40;;;;;;5014660;28;20030;-66
2021/10/20 10:52:20;;;;;;;5.50;2.55;;;24.30;93.70;;;;;;5032932;28;20033;-65
2021/10/20 10:55:17;;;;;;;6.95;2.55;;;24.80;93.70;;;;;;5032764;28;20021;-65
2021/10/20 10:57:56;;;;;;;6.15;2.72;;;25.30;92.50;;;;;;5033206;28;20029;-65
2021/10/20 11:00:22;;;;;;;3.92;2.72;;;25.70;90.60;;;;;;5033093;28;20026;-66
2021/10/20 11:02:58;;;;;;;5.28;2.65;;;25.70;90.30;;;;;;5032937;28;20032;-66
2021/10/20 11:05:26;;;;;;;4.25;2.70;;;25.90;87.70;;;;;;5032043;28;20514;-64
2021/10/20 11:07:59;;;;;;;4.38;2.38;;;25.30;90.00;;;;;;5032532;28;20025;-65
2021/10/20 11:10:25;;;;;;;4.40;2.85;;;25.50;90.50;;;;;;5032938;28;20041;-66
2021/10/20 11:12:52;;;;;;;2.83;2.47;;;25.70;90.00;;;;;;5033241;28;20435;-65
2021/10/20 11:15:19;;;;;;;9.65;3.63;;;25.70;90.30;;;;;;5032219;28;20030;-65
2021/10/20 11:17:46;;;;;;;7.35;2.92;;;25.90;90.90;;;;;;5033135;28;20140;-65
2021/10/20 11:20:14;;;;;;;6.13;2.58;;;25.70;89.10;;;;;;5033271;28;20022;-64
2021/10/20 11:22:43;;;;;;;4.50;2.90;;;25.20;90.20;;;;;;5033249;28;20727;-65
2021/10/20 11:25:11;;;;;;;8.07;2.30;;;24.90;90.60;;;;;;5023529;28;20041;-72
2021/10/20 11:27:38;;;;;;;2.42;2.22;;;24.90;89.70;;;;;;5032269;28;20063;-72
2021/10/20 11:30:05;;;;;;;5.75;2.50;;;25.00;90.10;;;;;;5032659;28;20033;-71
2021/10/20 11:32:32;;;;;;;2.05;1.85;;;25.70;89.60;;;;;;5013677;28;20026;-72
2021/10/20 11:34:58;;;;;;;2.83;1.67;;;25.90;89.00;;;;;;5011656;28;20438;-72
2021/10/20 11:37:25;;;;;;;3.10;1.73;;;26.00;87.00;;;;;;5056907;23;20402;-72
2021/10/20 11:39:54;;;;;;;2.83;1.88;;;25.40;88.50;;;;;;5047021;28;20025;-74
2021/10/20 11:42:19;;;;;;;3.42;1.70;;;25.40;91.30;;;;;;5051870;28;20067;-74
2021/10/20 11:44:45;;;;;;;1.88;1.35;;;25.50;90.60;;;;;;5051318;28;20102;-74
2021/10/20 11:47:14;;;;;;;2.33;1.35;;;26.40;89.60;;;;;;5040172;28;20026;-74
2021/10/20 11:49:49;;;;;;;1.95;1.40;;;26.70;87.30;;;;;;5031696;28;20040;-74
2021/10/20 11:52:17;;;;;;;3.60;1.30;;;27.30;88.30;;;;;;5031708;28;20087;-74
2021/10/20 11:54:44;;;;;;;1.52;1.23;;;27.80;85.30;;;;;;5031079;28;20026;-74
2021/10/20 11:57:12;;;;;;;1.98;1.30;;;27.80;82.90;;;;;;5014130;28;20036;-74
2021/10/20 11:59:38;;;;;;;1.35;1.20;;;28.00;84.60;;;;;;5031840;28;20021;-73
2021/10/20 12:02:04;;;;;;;3.75;1.40;;;28.40;82.60;;;;;;5031638;28;20494;-73
2021/10/20 12:04:30;;;;;;;1.15;1.13;;;28.20;83.60;;;;;;5031437;28;20099;-74
2021/10/20 12:06:59;;;;;;;4.22;1.60;;;28.50;81.10;;;;;;5031219;28;20040;-74
2021/10/20 12:09:28;;;;;;;1.55;1.30;;;28.70;81.50;;;;;;5031741;28;20099;-74
2021/10/20 12:11:56;;;;;;;1.92;1.38;;;28.00;79.40;;;;;;5031550;28;20128;-74
2021/10/20 12:14:24;;;;;;;2.47;1.23;;;27.60;82.00;;;;;;5031007;28;20037;-73
2021/10/20 12:16:50;;;;;;;5.30;1.40;;;27.20;82.50;;;;;;5031592;28;20101;-73
2021/10/20 12:19:21;;;;;;;6.80;2.03;;;26.80;84.70;;;;;;5031403;28;20113;-73
2021/10/20 12:21:47;;;;;;;2.00;1.33;;;26.50;83.80;;;;;;5031567;28;20037;-71
2021/10/20 12:24:16;;;;;;;3.88;1.30;;;26.30;86.70;;;;;;5028546;28;20030;-75
2021/10/20 12:26:44;;;;;;;1.70;1.60;;;26.10;84.40;;;;;;5014254;28;20026;-74
2021/10/20 12:29:13;;;;;;;1.70;1.35;;;25.70;86.60;;;;;;5020932;28;20105;-75
2021/10/20 12:31:41;;;;;;;2.13;1.42;;;25.80;85.90;;;;;;5029993;28;20033;-77
2021/10/20 12:34:07;;;;;;;2.75;1.50;;;25.40;87.30;;;;;;5031721;28;20095;-76
2021/10/20 12:36:38;;;;;;;1.95;1.63;;;25.40;87.20;;;;;;5030326;28;20061;-77
2021/10/20 12:39:05;;;;;;;1.38;1.27;;;25.60;87.30;;;;;;5031544;28;20014;-77
2021/10/20 12:41:36;;;;;;;2.38;1.50;;;25.40;87.20;;;;;;5035452;28;20029;-74
2021/10/20 12:44:07;;;;;;;2.08;1.50;;;24.80;88.50;;;;;;5035379;28;20566;-74
2021/10/20 12:46:40;;;;;;;2.15;1.88;;;24.40;90.30;;;;;;5034714;28;20033;-74
2021/10/20 12:49:08;;;;;;;4.03;1.58;;;24.00;91.40;;;;;;5035337;28;20105;-73